Time;durP1;ratioP1;P1;durP2;ratioP2;P2;SDS_P1;SDS_P2;PMS_P1;PMS_P2;Temp;Humidity;BMP_temperature;BMP_pressure;BME280_temperature;BME280_humidity;BME280_pressure;Samples;Min_cycle;Max_cycle;Signal;HPM_P1;HPM_P2
2022/04/15 00:00:08;;;;;;;0.10;0.10;;;8.20;99.90;;;;;;5073850;28;20119;-80
2022/04/15 00:02:36;;;;;;;0.10;0.10;;;8.20;99.90;;;;;;5095668;28;20451;-83
2022/04/15 00:05:29;;;;;;;0.10;0.10;;;8.20;99.90;;;;;;5079761;28;20065;-82
2022/04/15 00:07:51;;;;;;;0.10;0.10;;;8.20;99.90;;;;;;5104449;28;20049;-82
2022/04/15 00:10:17;;;;;;;0.10;0.10;;;8.20;99.90;;;;;;5086633;28;20412;-79
2022/04/15 00:12:44;;;;;;;0.10;0.10;;;8.20;99.90;;;;;;5111122;28;20032;-82
2022/04/15 00:15:11;;;;;;;0.10;0.10;;;8.20;99.90;;;;;;5095588;28;20805;-82
2022/04/15 00:17:37;;;;;;;0.10;0.10;;;8.20;99.90;;;;;;5097840;28;20032;-78
2022/04/15 00:20:05;;;;;;;0.10;0.10;;;8.30;99.90;;;;;;5080913;28;20497;-82
2022/04/15 00:22:32;;;;;;;0.10;0.10;;;8.30;99.90;;;;;;5086980;28;20041;-82
2022/04/15 00:24:58;;;;;;;0.10;0.10;;;8.30;99.90;;;;;;5070457;28;20409;-82
2022/04/15 00:27:25;;;;;;;0.13;0.13;;;8.30;99.90;;;;;;5086700;28;20079;-82
2022/04/15 00:29:52;;;;;;;0.10;0.10;;;8.20;99.90;;;;;;5104237;28;20041;-81
2022/04/15 00:32:18;;;;;;;0.10;0.10;;;8.30;99.90;;;;;;5070312;28;20052;-79
2022/04/15 00:34:45;;;;;;;0.10;0.10;;;8.30;99.90;;;;;;5068870;28;20494;-82
2022/04/15 00:37:12;;;;;;;0.10;0.10;;;8.30;99.90;;;;;;5086401;28;20056;-81
2022/04/15 00:39:45;;;;;;;0.20;0.20;;;8.30;99.90;;;;;;5070103;28;20041;-82
2022/04/15 00:42:12;;;;;;;0.10;0.10;;;8.30;99.90;;;;;;5103540;28;20045;-81
2022/04/15 00:44:39;;;;;;;0.10;0.10;;;8.40;99.90;;;;;;5070689;28;20041;-79
2022/04/15 00:47:48;;;;;;;0.10;0.10;;;8.30;99.90;;;;;;5090373;28;20076;-79
2022/04/15 00:50:16;;;;;;;0.10;0.10;;;8.40;99.90;;;;;;5069881;28;20045;-82
2022/04/15 00:52:44;;;;;;;0.10;0.10;;;8.40;99.90;;;;;;5090246;28;20041;-79
2022/04/15 00:55:13;;;;;;;0.10;0.10;;;8.40;99.90;;;;;;5090101;28;20085;-81
2022/04/15 00:57:51;;;;;;;0.10;0.10;;;8.40;99.90;;;;;;5090050;28;20068;-82
2022/04/15 01:00:19;;;;;;;0.10;0.10;;;8.40;99.90;;;;;;5089814;28;20067;-79
2022/04/15 01:02:49;;;;;;;0.10;0.10;;;8.40;99.90;;;;;;5090541;28;20437;-79
2022/04/15 01:05:17;;;;;;;0.10;0.10;;;8.50;99.90;;;;;;5073011;28;20095;-82
2022/04/15 01:07:50;;;;;;;0.10;0.10;;;8.40;99.90;;;;;;5056768;28;20044;-79
2022/04/15 01:10:19;;;;;;;0.10;0.10;;;8.30;99.90;;;;;;5089325;28;20103;-82
2022/04/15 01:12:51;;;;;;;0.10;0.10;;;8.40;99.90;;;;;;5089694;28;20045;-79
2022/04/15 01:15:19;;;;;;;0.10;0.10;;;8.40;99.90;;;;;;5106222;28;20127;-79
2022/04/15 01:17:46;;;;;;;0.10;0.10;;;8.40;99.90;;;;;;5106256;28;20091;-80
2022/04/15 01:20:13;;;;;;;0.10;0.10;;;8.40;99.90;;;;;;5073563;28;20036;-82
2022/04/15 01:22:45;;;;;;;0.05;0.05;;;8.40;99.90;;;;;;5089258;28;20048;-82
2022/04/15 01:25:14;;;;;;;0.10;0.10;;;8.40;99.90;;;;;;5072893;28;20501;-82
2022/04/15 01:27:42;;;;;;;0.10;0.10;;;8.40;99.90;;;;;;5105683;28;20078;-82
2022/04/15 01:30:17;;;;;;;0.10;0.10;;;8.40;99.90;;;;;;5106411;28;20089;-79
2022/04/15 01:32:45;;;;;;;0.10;0.10;;;8.40;99.90;;;;;;5089709;28;20055;-79
2022/04/15 01:35:13;;;;;;;0.10;0.10;;;8.40;99.90;;;;;;5072902;28;20071;-83
2022/04/15 01:37:40;;;;;;;0.10;0.10;;;8.40;99.90;;;;;;5089460;28;20047;-79
2022/04/15 01:40:09;;;;;;;0.10;0.10;;;8.40;99.90;;;;;;5089341;28;20036;-80
2022/04/15 01:42:37;;;;;;;0.10;0.10;;;8.50;99.90;;;;;;5089115;28;20040;-79
2022/04/15 01:45:06;;;;;;;0.10;0.10;;;8.50;99.90;;;;;;5089526;28;20126;-83
2022/04/15 01:47:33;;;;;;;0.10;0.10;;;8.50;99.90;;;;;;5088964;28;20497;-82
2022/04/15 01:49:59;;;;;;;0.52;0.30;;;8.40;99.90;;;;;;5089498;28;20055;-79
2022/04/15 01:52:26;;;;;;;0.10;0.10;;;8.50;99.90;;;;;;5055886;28;20432;-79
2022/04/15 01:54:53;;;;;;;0.10;0.10;;;8.50;99.90;;;;;;5056308;28;20253;-82
2022/04/15 01:57:20;;;;;;;0.10;0.10;;;8.40;99.90;;;;;;5056258;28;20097;-79
2022/04/15 01:59:47;;;;;;;0.10;0.10;;;8.50;99.90;;;;;;5072836;28;20401;-82
2022/04/15 02:02:14;;;;;;;0.10;0.10;;;8.50;99.90;;;;;;5056256;28;20507;-79
2022/04/15 02:04:41;;;;;;;0.10;0.10;;;8.40;99.90;;;;;;5072545;28;20094;-79
2022/04/15 02:07:07;;;;;;;0.20;0.20;;;8.40;99.90;;;;;;5105962;28;20401;-82
2022/04/15 02:09:34;;;;;;;0.10;0.10;;;8.50;99.90;;;;;;5089081;28;20552;-82
2022/04/15 02:12:01;;;;;;;2.47;0.40;;;8.50;99.90;;;;;;5089031;28;20566;-79
2022/04/15 02:14:27;;;;;;;0.10;0.10;;;8.40;99.90;;;;;;5071948;28;20044;-79
2022/04/15 02:16:54;;;;;;;0.10;0.10;;;8.50;99.90;;;;;;5088875;28;20032;-82
2022/04/15 02:19:21;;;;;;;0.10;0.10;;;8.50;99.90;;;;;;5088954;28;20085;-82
2022/04/15 02:21:49;;;;;;;0.10;0.10;;;8.50;99.90;;;;;;5088596;28;20040;-79
2022/04/15 02:24:16;;;;;;;0.10;0.10;;;8.50;99.90;;;;;;5085189;28;20048;-83
2022/04/15 02:26:43;;;;;;;0.10;0.10;;;8.40;99.90;;;;;;5062043;28;20044;-80
2022/04/15 02:29:10;;;;;;;0.10;0.10;;;8.40;99.90;;;;;;5072151;28;20472;-80
2022/04/15 02:31:36;;;;;;;0.10;0.10;;;8.50;99.90;;;;;;5084435;28;20076;-83
2022/04/15 02:34:03;;;;;;;0.10;0.10;;;8.40;99.90;;;;;;5068088;28;20071;-82
2022/04/15 02:36:30;;;;;;;0.10;0.10;;;8.40;99.90;;;;;;5104704;28;20139;-83
2022/04/15 02:38:57;;;;;;;0.10;0.10;;;8.30;99.90;;;;;;5055753;28;20049;-79
2022/04/15 02:41:23;;;;;;;0.10;0.10;;;8.30;99.90;;;;;;5055841;28;20047;-80
2022/04/15 02:43:50;;;;;;;0.10;0.10;;;8.30;99.90;;;;;;5105281;28;20087;-79
2022/04/15 02:46:18;;;;;;;0.10;0.10;;;8.20;99.90;;;;;;5055726;28;20041;-83
2022/04/15 02:48:45;;;;;;;0.10;0.10;;;8.10;99.90;;;;;;5088483;28;20066;-83
2022/04/15 02:51:14;;;;;;;0.10;0.10;;;8.20;99.90;;;;;;5055814;28;20053;-79
2022/04/15 02:53:40;;;;;;;0.10;0.10;;;8.20;99.90;;;;;;5072323;28;20059;-83
2022/04/15 02:56:07;;;;;;;0.10;0.10;;;8.10;99.90;;;;;;5055336;28;20409;-83
2022/04/15 02:58:34;;;;;;;0.10;0.10;;;8.10;99.90;;;;;;5073499;28;20094;-80
2022/04/15 03:01:02;;;;;;;0.10;0.10;;;8.00;99.90;;;;;;5092034;28;20149;-83
2022/04/15 03:03:29;;;;;;;0.10;0.10;;;8.00;99.90;;;;;;5092045;28;20059;-80
2022/04/15 03:05:56;;;;;;;0.10;0.10;;;8.00;99.90;;;;;;5092479;28;20040;-79
2022/04/15 03:08:23;;;;;;;0.10;0.10;;;8.00;99.90;;;;;;5092172;28;20045;-83
2022/04/15 03:10:49;;;;;;;0.10;0.10;;;8.00;99.90;;;;;;5091893;28;20090;-80
2022/04/15 03:13:16;;;;;;;0.10;0.10;;;8.00;99.90;;;;;;5092290;28;20098;-83
2022/04/15 03:15:43;;;;;;;0.08;0.08;;;8.30;99.90;;;;;;5055509;28;20041;-79
2022/04/15 03:18:10;;;;;;;0.10;0.10;;;7.90;99.90;;;;;;5071765;28;20045;-83
2022/04/15 03:20:37;;;;;;;0.10;0.10;;;8.00;99.90;;;;;;5088114;28;20090;-84
2022/04/15 03:23:03;;;;;;;0.10;0.10;;;7.90;99.90;;;;;;5088580;28;20044;-79
2022/04/15 03:25:30;;;;;;;0.10;0.10;;;8.00;99.90;;;;;;5065746;28;20136;-80
2022/04/15 03:27:58;;;;;;;0.10;0.10;;;8.00;99.90;;;;;;5074962;28;20535;-79
2022/04/15 03:30:25;;;;;;;0.10;0.10;;;8.00;99.90;;;;;;5075014;28;20098;-79
2022/04/15 03:32:52;;;;;;;0.10;0.10;;;8.00;99.90;;;;;;5074690;28;20045;-79
2022/04/15 03:35:20;;;;;;;0.10;0.10;;;8.10;99.90;;;;;;5074631;28;20048;-84
2022/04/15 03:37:48;;;;;;;0.10;0.10;;;8.00;99.90;;;;;;5091220;28;20043;-80
2022/04/15 03:40:15;;;;;;;0.10;0.10;;;7.90;99.90;;;;;;5091273;28;20028;-79
2022/04/15 03:42:47;;;;;;;0.10;0.10;;;7.90;99.90;;;;;;5091298;28;20058;-79
2022/04/15 03:45:14;;;;;;;0.10;0.10;;;8.30;99.90;;;;;;5091747;28;20091;-79
2022/04/15 03:47:42;;;;;;;0.38;0.28;;;7.90;99.90;;;;;;5074699;28;20036;-83
2022/04/15 03:50:13;;;;;;;0.10;0.10;;;7.90;99.90;;;;;;5091659;28;20067;-83
2022/04/15 03:52:44;;;;;;;0.10;0.10;;;7.90;99.90;;;;;;5074528;28;20044;-82
2022/04/15 03:55:12;;;;;;;0.10;0.10;;;7.90;99.90;;;;;;5091209;28;20560;-80
2022/04/15 03:57:39;;;;;;;0.10;0.10;;;7.80;99.90;;;;;;5090903;28;20041;-82
2022/04/15 04:00:08;;;;;;;0.15;0.15;;;7.80;99.90;;;;;;5091150;28;20562;-82
2022/04/15 04:02:35;;;;;;;0.10;0.10;;;7.80;99.90;;;;;;5091230;28;20037;-80
2022/04/15 04:05:02;;;;;;;0.10;0.10;;;7.80;99.90;;;;;;5090723;28;20413;-83
2022/04/15 04:07:28;;;;;;;0.10;0.10;;;7.80;99.90;;;;;;5107655;28;20050;-79
2022/04/15 04:09:55;;;;;;;0.10;0.10;;;7.80;99.90;;;;;;5107504;28;20040;-79
2022/04/15 04:12:22;;;;;;;0.13;0.13;;;7.80;99.90;;;;;;5074491;28;20040;-83
2022/04/15 04:14:49;;;;;;;0.20;0.20;;;7.70;99.90;;;;;;5107077;28;20502;-79
2022/04/15 04:17:15;;;;;;;0.10;0.10;;;7.70;99.90;;;;;;5090727;28;20037;-83
2022/04/15 04:19:42;;;;;;;0.10;0.10;;;7.70;99.90;;;;;;5073609;28;20127;-82
2022/04/15 04:22:09;;;;;;;0.10;0.10;;;7.70;99.90;;;;;;5090349;28;20071;-83
2022/04/15 04:24:35;;;;;;;0.10;0.10;;;7.70;99.90;;;;;;5090692;28;20048;-82
2022/04/15 04:27:02;;;;;;;0.20;0.20;;;7.60;99.90;;;;;;5073724;28;20516;-82
2022/04/15 04:29:29;;;;;;;0.20;0.20;;;7.60;99.90;;;;;;5106889;28;20158;-79
2022/04/15 04:31:56;;;;;;;0.10;0.10;;;8.00;99.90;;;;;;5073266;28;20047;-82
2022/04/15 04:34:23;;;;;;;0.10;0.10;;;7.80;99.90;;;;;;5073729;28;20502;-83
2022/04/15 04:36:49;;;;;;;0.10;0.10;;;7.60;99.90;;;;;;5089901;28;20056;-82
2022/04/15 04:39:16;;;;;;;0.10;0.10;;;7.50;99.90;;;;;;5089621;28;20133;-82
2022/04/15 04:41:43;;;;;;;0.10;0.10;;;7.50;99.90;;;;;;5089621;28;20040;-80
2022/04/15 04:44:09;;;;;;;0.10;0.10;;;8.30;99.90;;;;;;5089898;28;20040;-79
2022/04/15 04:46:36;;;;;;;0.10;0.10;;;7.50;99.90;;;;;;5089566;28;20058;-79
2022/04/15 04:49:03;;;;;;;0.10;0.10;;;7.40;99.90;;;;;;5056149;28;20390;-82
2022/04/15 04:51:30;;;;;;;0.17;0.17;;;7.50;99.90;;;;;;5056258;28;20040;-79
2022/04/15 04:53:56;;;;;;;0.10;0.10;;;7.40;99.90;;;;;;5072452;28;20048;-80
2022/04/15 04:56:23;;;;;;;0.10;0.10;;;7.40;99.90;;;;;;5056270;28;20127;-82
2022/04/15 04:58:50;;;;;;;0.10;0.10;;;7.40;99.90;;;;;;5072741;28;20040;-79
2022/04/15 05:01:16;;;;;;;0.10;0.10;;;7.40;99.90;;;;;;5056526;28;20123;-79
2022/04/15 05:03:43;;;;;;;0.10;0.10;;;7.40;99.90;;;;;;5089723;28;20044;-80
2022/04/15 05:06:10;;;;;;;0.10;0.10;;;7.30;99.90;;;;;;5073172;28;20045;-82
2022/04/15 05:08:37;;;;;;;0.10;0.10;;;7.30;99.90;;;;;;5089730;28;20485;-79
2022/04/15 05:11:03;;;;;;;0.10;0.10;;;7.40;99.90;;;;;;5072849;28;20619;-80
2022/04/15 05:13:30;;;;;;;0.10;0.10;;;7.40;99.90;;;;;;5089564;28;20119;-80
2022/04/15 05:15:57;;;;;;;0.10;0.10;;;7.30;99.90;;;;;;5106030;28;20086;-83
2022/04/15 05:18:23;;;;;;;0.10;0.10;;;7.40;99.90;;;;;;5089436;28;20503;-82
2022/04/15 05:20:50;;;;;;;0.10;0.10;;;7.40;99.90;;;;;;5105318;28;20082;-82
2022/04/15 05:23:17;;;;;;;0.10;0.10;;;7.40;99.90;;;;;;5089404;28;20118;-83
2022/04/15 05:25:43;;;;;;;0.10;0.10;;;7.40;99.90;;;;;;5056836;28;20094;-79
2022/04/15 05:28:10;;;;;;;0.10;0.10;;;7.40;99.90;;;;;;5090056;28;20114;-83
2022/04/15 05:30:37;;;;;;;0.15;0.15;;;7.50;99.90;;;;;;5073046;28;20044;-79
2022/04/15 05:33:04;;;;;;;0.10;0.10;;;7.40;99.90;;;;;;5056283;28;20044;-79
2022/04/15 05:35:31;;;;;;;0.10;0.10;;;7.50;99.90;;;;;;5089231;28;20481;-82
2022/04/15 05:37:57;;;;;;;0.10;0.10;;;7.50;99.90;;;;;;5105885;28;20048;-80
2022/04/15 05:40:27;;;;;;;0.10;0.10;;;7.50;99.90;;;;;;5072576;28;20044;-83
2022/04/15 05:42:54;;;;;;;0.10;0.10;;;7.50;99.90;;;;;;5088903;28;20044;-79
2022/04/15 05:45:21;;;;;;;0.30;0.30;;;7.90;99.90;;;;;;5089902;28;20040;-82
2022/04/15 05:47:48;;;;;;;0.10;0.10;;;7.50;99.90;;;;;;5105976;28;20457;-82
2022/04/15 05:50:14;;;;;;;0.10;0.10;;;7.60;99.90;;;;;;5089233;28;20084;-79
2022/04/15 05:52:41;;;;;;;0.10;0.10;;;7.60;99.90;;;;;;5073039;28;20409;-82
2022/04/15 05:55:08;;;;;;;0.10;0.10;;;7.60;99.90;;;;;;5072376;28;20097;-79
2022/04/15 05:57:35;;;;;;;0.10;0.10;;;7.60;99.90;;;;;;5072940;28;20648;-79
2022/04/15 06:00:04;;;;;;;0.10;0.10;;;7.70;99.90;;;;;;5088712;28;20041;-80
2022/04/15 06:02:30;;;;;;;0.10;0.10;;;7.60;99.90;;;;;;5089072;28;20592;-82
2022/04/15 06:04:58;;;;;;;0.10;0.10;;;8.00;99.90;;;;;;5071967;28;20119;-79
2022/04/15 06:07:24;;;;;;;0.10;0.10;;;7.60;99.90;;;;;;5072531;28;20044;-79
2022/04/15 06:09:51;;;;;;;0.10;0.10;;;7.70;99.90;;;;;;5072637;28;20048;-83
2022/04/15 06:12:21;;;;;;;0.10;0.10;;;7.70;99.90;;;;;;5088461;28;20045;-83
2022/04/15 06:14:49;;;;;;;0.10;0.10;;;7.70;99.90;;;;;;5088957;28;20040;-83
2022/04/15 06:17:21;;;;;;;0.10;0.10;;;7.70;99.90;;;;;;5072145;28;20059;-79
2022/04/15 06:19:49;;;;;;;0.10;0.10;;;7.70;99.90;;;;;;5073220;28;20041;-79
2022/04/15 06:22:15;;;;;;;0.10;0.10;;;7.70;99.90;;;;;;5072026;28;20764;-82
2022/04/15 06:24:45;;;;;;;0.20;0.20;;;7.70;99.90;;;;;;5072081;28;20051;-83
2022/04/15 06:27:12;;;;;;;0.10;0.10;;;7.80;99.90;;;;;;5101074;28;20098;-79
2022/04/15 06:29:38;;;;;;;0.10;0.10;;;7.70;99.90;;;;;;5068949;28;20049;-80
2022/04/15 06:32:05;;;;;;;0.10;0.10;;;7.80;99.90;;;;;;5088482;28;20079;-82
2022/04/15 06:34:32;;;;;;;0.20;0.20;;;7.80;99.90;;;;;;5072089;28;20510;-79
2022/04/15 06:36:59;;;;;;;0.10;0.10;;;7.70;99.90;;;;;;5088831;28;20081;-80
2022/04/15 06:39:25;;;;;;;0.10;0.10;;;7.80;99.90;;;;;;5065115;28;20036;-84
2022/04/15 06:41:52;;;;;;;0.10;0.10;;;7.70;99.90;;;;;;5092692;28;20040;-79
2022/04/15 06:44:19;;;;;;;0.10;0.10;;;7.80;99.90;;;;;;5059512;28;20062;-83
2022/04/15 06:46:46;;;;;;;0.20;0.20;;;7.80;99.90;;;;;;5076091;28;20048;-84
2022/04/15 06:49:12;;;;;;;0.10;0.10;;;7.80;99.90;;;;;;5091866;28;20045;-79
2022/04/15 06:51:39;;;;;;;0.10;0.10;;;7.80;99.90;;;;;;5092593;28;20072;-79
2022/04/15 06:54:06;;;;;;;0.10;0.10;;;7.70;99.90;;;;;;5058951;28;20032;-82
2022/04/15 06:56:33;;;;;;;0.10;0.10;;;7.80;99.90;;;;;;5075945;28;20044;-80
2022/04/15 06:58:59;;;;;;;0.10;0.10;;;7.80;99.90;;;;;;5092082;28;20036;-83
2022/04/15 07:01:26;;;;;;;0.10;0.10;;;7.80;99.90;;;;;;5075793;28;20193;-83
2022/04/15 07:03:53;;;;;;;0.22;0.22;;;7.80;99.90;;;;;;5094426;28;20504;-83
2022/04/15 07:06:19;;;;;;;0.10;0.10;;;7.80;99.90;;;;;;5088703;28;20036;-83
2022/04/15 07:08:49;;;;;;;0.10;0.10;;;7.70;99.90;;;;;;5079916;28;20037;-79
2022/04/15 07:11:16;;;;;;;0.10;0.10;;;7.80;99.90;;;;;;5082758;28;20511;-83
2022/04/15 07:13:42;;;;;;;0.43;0.43;;;7.70;99.90;;;;;;5092128;28;20044;-80
2022/04/15 07:16:09;;;;;;;0.10;0.10;;;7.80;99.90;;;;;;5091352;28;20098;-79
2022/04/15 07:18:36;;;;;;;0.10;0.10;;;7.70;99.90;;;;;;5098675;28;20037;-83
2022/04/15 07:21:02;;;;;;;0.10;0.10;;;7.80;99.90;;;;;;5085834;28;20787;-80
2022/04/15 07:23:29;;;;;;;0.10;0.10;;;7.80;99.90;;;;;;5105507;28;20037;-83
2022/04/15 07:25:56;;;;;;;0.10;0.10;;;7.80;99.90;;;;;;5073833;28;20045;-83
2022/04/15 07:28:22;;;;;;;0.10;0.10;;;7.70;99.90;;;;;;5071592;28;20048;-84
2022/04/15 07:30:49;;;;;;;0.10;0.10;;;7.80;99.90;;;;;;5075241;28;20087;-84
2022/04/15 07:33:17;;;;;;;0.10;0.10;;;7.80;99.90;;;;;;5074941;28;20048;-82
2022/04/15 07:35:44;;;;;;;0.10;0.10;;;7.80;99.90;;;;;;5058688;28;20053;-84
2022/04/15 07:38:11;;;;;;;0.10;0.10;;;7.80;99.90;;;;;;5066755;28;20562;-81
2022/04/15 07:40:38;;;;;;;0.10;0.10;;;7.80;99.90;;;;;;5078367;28;20089;-81
2022/04/15 07:43:05;;;;;;;0.10;0.10;;;7.90;99.90;;;;;;5090966;28;20039;-81
2022/04/15 07:45:32;;;;;;;0.10;0.10;;;7.90;99.90;;;;;;5074371;28;20041;-81
2022/04/15 07:47:58;;;;;;;0.13;0.13;;;7.90;99.90;;;;;;5091841;28;20040;-84
2022/04/15 07:50:26;;;;;;;0.10;0.10;;;8.00;99.90;;;;;;5070931;28;20045;-80
2022/04/15 07:52:57;;;;;;;0.10;0.10;;;8.00;99.90;;;;;;5071590;28;20037;-84
2022/04/15 07:55:25;;;;;;;0.10;0.10;;;8.10;99.90;;;;;;5087587;28;20385;-80
2022/04/15 07:57:52;;;;;;;0.20;0.20;;;8.10;99.90;;;;;;5091696;28;20032;-84
2022/04/15 08:00:20;;;;;;;0.10;0.10;;;8.10;99.90;;;;;;5137917;28;20043;-80
2022/04/15 08:02:47;;;;;;;0.10;0.10;;;8.20;99.90;;;;;;5108817;28;20042;-84
2022/04/15 08:05:14;;;;;;;0.10;0.10;;;8.20;99.90;;;;;;5134797;28;20864;-81
2022/04/15 08:07:43;;;;;;;0.20;0.20;;;8.30;99.90;;;;;;5078297;28;20444;-84
2022/04/15 08:10:10;;;;;;;0.22;0.22;;;8.30;99.90;;;;;;5084875;28;20126;-81
2022/04/15 08:12:37;;;;;;;0.10;0.10;;;8.30;99.90;;;;;;5094150;28;20127;-85
2022/04/15 08:15:05;;;;;;;0.10;0.10;;;8.40;99.90;;;;;;5077058;28;20044;-84
2022/04/15 08:17:32;;;;;;;0.10;0.10;;;8.40;99.90;;;;;;5090308;28;20094;-84
2022/04/15 08:19:58;;;;;;;0.25;0.10;;;8.50;99.90;;;;;;5053982;28;20422;-80
2022/04/15 08:22:25;;;;;;;0.10;0.10;;;8.50;99.90;;;;;;5070209;28;20037;-81
2022/04/15 08:24:52;;;;;;;0.10;0.10;;;8.60;99.90;;;;;;5070410;28;20758;-84
2022/04/15 08:27:19;;;;;;;0.10;0.10;;;8.80;99.90;;;;;;5070335;28;20041;-84
2022/04/15 08:29:46;;;;;;;0.15;0.15;;;8.80;99.90;;;;;;5070241;28;20041;-81
2022/04/15 08:32:12;;;;;;;0.10;0.10;;;8.90;99.90;;;;;;5058475;28;20131;-83
2022/04/15 08:34:40;;;;;;;0.10;0.10;;;9.20;99.90;;;;;;5057120;28;20489;-84
2022/04/15 08:37:06;;;;;;;0.10;0.10;;;9.20;99.90;;;;;;5034014;28;20406;-84
2022/04/15 08:39:33;;;;;;;0.10;0.10;;;9.20;99.90;;;;;;5037293;28;20037;-84
2022/04/15 08:42:00;;;;;;;0.10;0.10;;;9.20;99.90;;;;;;5048959;28;20044;-83
2022/04/15 08:44:30;;;;;;;0.08;0.08;;;9.20;99.90;;;;;;5049588;28;20045;-81
2022/04/15 08:46:58;;;;;;;0.10;0.10;;;9.30;99.90;;;;;;5049623;28;20516;-82
2022/04/15 08:49:26;;;;;;;0.20;0.20;;;9.30;99.90;;;;;;5049893;28;20053;-80
2022/04/15 08:52:00;;;;;;;0.10;0.10;;;9.30;99.90;;;;;;5050038;28;20041;-84
2022/04/15 08:54:27;;;;;;;0.10;0.10;;;9.30;99.90;;;;;;5049404;28;20458;-84
2022/04/15 08:56:56;;;;;;;0.20;0.20;;;9.40;99.90;;;;;;5033477;28;20041;-84
2022/04/15 08:59:26;;;;;;;0.10;0.10;;;9.10;99.90;;;;;;5065640;28;20128;-81
2022/04/15 09:01:52;;;;;;;0.15;0.15;;;9.30;99.90;;;;;;5050328;28;20052;-84
2022/04/15 09:04:19;;;;;;;0.28;0.20;;;9.30;99.90;;;;;;5032695;28;20049;-81
2022/04/15 09:06:58;;;;;;;0.10;0.10;;;9.30;99.90;;;;;;5050155;28;20121;-84
2022/04/15 09:09:32;;;;;;;0.10;0.10;;;9.20;99.90;;;;;;5033081;28;20881;-80
2022/04/15 09:12:03;;;;;;;0.10;0.10;;;9.20;99.90;;;;;;5082777;28;20042;-81
2022/04/15 09:14:29;;;;;;;0.10;0.10;;;9.30;99.90;;;;;;5049521;28;20410;-84
2022/04/15 09:16:57;;;;;;;0.10;0.10;;;9.30;99.90;;;;;;5049800;28;20042;-84
2022/04/15 09:19:23;;;;;;;0.10;0.10;;;9.30;99.90;;;;;;5049054;28;20060;-84
2022/04/15 09:21:55;;;;;;;0.00;0.00;;;9.40;99.90;;;;;;5044014;28;20037;-80
2022/04/15 09:24:33;;;;;;;0.10;0.10;;;9.60;99.90;;;;;;5065361;28;20037;-81
2022/04/15 09:27:08;;;;;;;0.10;0.10;;;9.60;99.90;;;;;;5049722;28;20491;-81
2022/04/15 09:29:43;;;;;;;0.10;0.10;;;9.70;99.90;;;;;;5049041;28;20037;-81
2022/04/15 09:32:15;;;;;;;0.13;0.10;;;9.70;99.90;;;;;;5034916;28;20096;-85
2022/04/15 09:35:07;;;;;;;0.10;0.10;;;9.70;99.90;;;;;;5049228;28;20509;-81
2022/04/15 09:37:43;;;;;;;0.10;0.10;;;9.10;99.90;;;;;;5106043;28;20063;-84
2022/04/15 09:40:16;;;;;;;18.73;0.40;;;9.70;99.90;;;;;;5089584;28;20040;-81
2022/04/15 09:42:52;;;;;;;0.10;0.10;;;9.60;99.90;;;;;;5106046;28;20048;-84
2022/04/15 09:45:34;;;;;;;0.10;0.10;;;9.60;99.90;;;;;;5089251;28;20036;-84
2022/04/15 09:48:06;;;;;;;0.10;0.10;;;9.60;99.90;;;;;;5089605;28;20045;-81
2022/04/15 09:50:36;;;;;;;0.10;0.10;;;9.60;99.90;;;;;;5088833;28;20045;-81
2022/04/15 09:53:20;;;;;;;0.00;0.00;;;9.70;99.90;;;;;;5089710;28;20075;-84
2022/04/15 09:55:51;;;;;;;0.20;0.20;;;9.80;99.90;;;;;;5072271;28;20036;-84
2022/04/15 09:58:28;;;;;;;0.20;0.20;;;9.80;99.90;;;;;;5072982;28;20041;-81
2022/04/15 10:00:58;;;;;;;0.10;0.10;;;9.70;99.90;;;;;;5089039;28;20044;-84
2022/04/15 10:03:27;;;;;;;0.10;0.10;;;9.80;99.90;;;;;;5088935;28;20048;-81
2022/04/15 10:05:55;;;;;;;0.00;0.00;;;9.80;99.90;;;;;;5088967;28;20040;-84
2022/04/15 10:08:24;;;;;;;0.00;0.00;;;9.70;99.90;;;;;;5092796;28;20493;-81
2022/04/15 10:10:52;;;;;;;0.10;0.10;;;9.70;99.90;;;;;;5093282;28;20076;-84
2022/04/15 10:13:27;;;;;;;0.10;0.10;;;9.60;99.90;;;;;;5076671;28;20119;-85
2022/04/15 10:15:57;;;;;;;0.10;0.10;;;9.70;99.90;;;;;;5093283;28;20114;-84
2022/04/15 10:18:26;;;;;;;0.10;0.10;;;9.50;99.90;;;;;;5093290;28;20033;-81
2022/04/15 10:20:53;;;;;;;0.00;0.00;;;9.40;99.90;;;;;;5075720;28;20559;-85
2022/04/15 10:23:21;;;;;;;0.10;0.10;;;9.40;99.90;;;;;;5092659;28;20036;-80
2022/04/15 10:25:50;;;;;;;0.05;0.05;;;9.40;99.90;;;;;;5092278;28;20070;-81
2022/04/15 10:28:18;;;;;;;0.10;0.10;;;9.40;99.90;;;;;;5076338;28;20074;-84
2022/04/15 10:31:16;;;;;;;0.10;0.10;;;9.30;99.90;;;;;;5092796;28;20564;-79
2022/04/15 10:33:49;;;;;;;0.10;0.10;;;9.30;99.90;;;;;;5084725;28;20049;-81
2022/04/15 10:36:25;;;;;;;0.10;0.10;;;9.20;99.90;;;;;;5090580;28;20501;-82
2022/04/15 10:39:07;;;;;;;0.10;0.10;;;9.20;99.90;;;;;;5092368;28;20093;-85
2022/04/15 10:41:56;;;;;;;0.00;0.00;;;9.30;99.90;;;;;;5101383;28;20043;-85
2022/04/15 10:44:27;;;;;;;0.10;0.10;;;9.20;99.90;;;;;;5101318;28;20190;-85
2022/04/15 10:47:17;;;;;;;0.10;0.10;;;9.20;99.90;;;;;;5092570;28;20104;-82
2022/04/15 10:50:06;;;;;;;0.10;0.10;;;9.20;99.90;;;;;;5077890;28;20046;-82
2022/04/15 10:52:34;;;;;;;0.10;0.10;;;9.20;99.90;;;;;;5076563;28;20061;-79
2022/04/15 10:55:02;;;;;;;0.10;0.10;;;9.20;99.90;;;;;;5092399;28;20041;-82
2022/04/15 10:57:36;;;;;;;0.10;0.10;;;9.20;99.90;;;;;;5108157;28;20064;-82
2022/04/15 11:03:28;;;;;;;0.10;0.10;;;9.60;99.90;;;;;;5108602;28;20114;-79
2022/04/15 11:05:57;;;;;;;0.10;0.10;;;9.20;99.90;;;;;;5091774;28;20420;-79
2022/04/15 11:08:26;;;;;;;0.10;0.10;;;9.20;99.90;;;;;;5092446;28;20040;-82
2022/04/15 11:10:58;;;;;;;0.10;0.10;;;9.20;99.90;;;;;;5091645;28;20040;-83
2022/04/15 11:13:40;;;;;;;0.10;0.10;;;9.20;99.90;;;;;;5091824;28;20475;-78
2022/04/15 11:16:07;;;;;;;0.10;0.10;;;9.20;99.90;;;;;;5092117;28;20123;-80
2022/04/15 11:18:53;;;;;;;0.10;0.10;;;9.20;99.90;;;;;;5090948;28;20120;-79
2022/04/15 11:21:22;;;;;;;0.10;0.10;;;9.20;99.90;;;;;;5108582;28;20048;-79
2022/04/15 11:23:55;;;;;;;0.10;0.10;;;9.20;99.90;;;;;;5090927;28;20042;-82
2022/04/15 11:26:23;;;;;;;0.10;0.10;;;9.20;99.90;;;;;;5091841;28;20681;-78
2022/04/15 11:28:52;;;;;;;0.10;0.10;;;9.30;99.90;;;;;;5074844;28;20463;-78
2022/04/15 11:31:22;;;;;;;0.20;0.20;;;9.30;99.90;;;;;;5091856;28;20050;-78
2022/04/15 11:33:49;;;;;;;0.15;0.10;;;9.30;99.90;;;;;;5091243;28;20048;-83
2022/04/15 11:36:20;;;;;;;0.10;0.10;;;9.30;99.90;;;;;;5074230;28;20582;-79
2022/04/15 11:38:48;;;;;;;0.10;0.10;;;9.20;99.90;;;;;;5074478;28;20042;-79
2022/04/15 11:41:22;;;;;;;0.10;0.10;;;9.30;99.90;;;;;;5074924;28;20036;-83
2022/04/15 11:43:59;;;;;;;0.10;0.10;;;9.30;99.90;;;;;;5090798;28;20040;-82
2022/04/15 11:46:51;;;;;;;0.10;0.10;;;9.40;99.90;;;;;;5074657;28;20090;-78
2022/04/15 11:49:23;;;;;;;0.10;0.10;;;9.40;99.90;;;;;;5091252;28;20401;-82
2022/04/15 11:51:57;;;;;;;0.10;0.10;;;9.40;99.90;;;;;;5098703;28;20508;-82
2022/04/15 11:54:35;;;;;;;0.10;0.10;;;9.40;99.90;;;;;;5077703;28;20513;-79
2022/04/15 11:57:04;;;;;;;0.10;0.10;;;9.40;99.90;;;;;;5087873;28;20044;-84
2022/04/15 11:59:38;;;;;;;0.10;0.10;;;9.40;99.90;;;;;;5094647;28;20079;-80
2022/04/15 12:02:05;;;;;;;0.10;0.10;;;9.40;99.90;;;;;;5079244;28;20036;-80
2022/04/15 12:04:32;;;;;;;0.10;0.10;;;9.30;99.90;;;;;;5074561;28;20037;-80
2022/04/15 12:06:59;;;;;;;0.10;0.10;;;9.30;99.90;;;;;;5064498;28;20041;-84
2022/04/15 12:09:26;;;;;;;0.10;0.10;;;9.30;99.90;;;;;;5066815;28;20068;-84
2022/04/15 12:11:53;;;;;;;0.10;0.10;;;9.30;99.90;;;;;;5084675;28;20413;-84
2022/04/15 12:14:20;;;;;;;0.10;0.10;;;9.30;99.90;;;;;;5074107;28;20097;-80
2022/04/15 12:16:47;;;;;;;0.00;0.00;;;9.20;99.90;;;;;;5057710;28;20493;-84
2022/04/15 12:19:15;;;;;;;0.10;0.10;;;9.20;99.90;;;;;;5058002;28;20528;-83
2022/04/15 12:21:42;;;;;;;0.10;0.10;;;9.30;99.90;;;;;;5090725;28;20525;-84
2022/04/15 12:24:19;;;;;;;0.10;0.10;;;9.20;99.90;;;;;;5090480;28;20044;-83
2022/04/15 12:26:51;;;;;;;0.10;0.10;;;9.30;99.90;;;;;;5090368;28;20044;-84
2022/04/15 12:32:38;;;;;;;0.00;0.00;;;9.40;99.90;;;;;;5110203;28;20048;-80
2022/04/15 12:35:09;;;;;;;0.10;0.10;;;9.30;99.90;;;;;;5090075;28;20057;-80
2022/04/15 12:37:53;;;;;;;0.10;0.10;;;9.40;99.90;;;;;;5084689;28;20044;-83
2022/04/15 12:40:20;;;;;;;0.20;0.20;;;9.40;99.90;;;;;;5054681;28;20076;-80
2022/04/15 12:42:49;;;;;;;0.00;0.00;;;9.40;99.90;;;;;;5087495;28;20079;-80
2022/04/15 12:45:19;;;;;;;0.10;0.10;;;9.40;99.90;;;;;;5100257;28;20068;-83
2022/04/15 12:48:01;;;;;;;0.00;0.00;;;9.40;99.90;;;;;;5073798;28;20071;-83
2022/04/15 12:50:31;;;;;;;0.10;0.10;;;9.30;99.90;;;;;;5079249;28;20041;-81
2022/04/15 12:52:58;;;;;;;0.00;0.00;;;9.40;99.90;;;;;;5092308;28;20098;-84
2022/04/15 12:55:33;;;;;;;0.10;0.10;;;9.40;99.90;;;;;;5078404;28;20434;-84
2022/04/15 12:58:01;;;;;;;0.10;0.10;;;9.40;99.90;;;;;;5085502;28;20119;-80
2022/04/15 13:00:30;;;;;;;0.10;0.10;;;9.40;99.90;;;;;;5089925;28;20132;-80
2022/04/15 13:02:56;;;;;;;0.10;0.10;;;9.30;99.90;;;;;;5106486;28;20032;-79
2022/04/15 13:05:24;;;;;;;0.10;0.10;;;9.40;99.90;;;;;;5072950;28;20045;-84
2022/04/15 13:07:52;;;;;;;0.10;0.10;;;9.30;99.90;;;;;;5044520;28;20037;-80
2022/04/15 13:10:20;;;;;;;0.00;0.00;;;9.30;99.90;;;;;;5087932;28;20505;-80
2022/04/15 13:12:46;;;;;;;0.00;0.00;;;9.30;99.90;;;;;;5106483;28;20059;-80